EBCI - Charleroi/Gosselies, Belgium
Distance de la station: NE 18km
Mise à jour: 23/06/2021 06:50
brume, principalement nuageux
brume, principalement nuageux
 Wind from NE
Vent: NE 17 km/h
Température: 11°C
Point de rosée: 10°C
Humidité: 94%
Baromètre: 1020 hPa
Résumé: brume
Ciel: principalement nuageux
Visibilité: 5 km
Détails du ciel: partiellement nuageux 91 m
principalement nuageux 152 m
2021/06/23 04:50 EBCI 230450Z 04009KT 5000 BR SCT003 BKN005 11/10 Q1020 TEMPO 1500 -DZRA BR BKN002
EBFS - Florennes, Belgium
Distance de la station: ESE 31km
Mise à jour: 23/06/2021 06:55
brume, principalement nuageux
brume, principalement nuageux
 Wind from NE
Vent: NE 13 km/h
Température: 11°C
Point de rosée: 11°C
Humidité: 100%
Baromètre: 1020 hPa
Résumé: brume
Ciel: principalement nuageux
Visibilité: 2 km
Détails du ciel: partiellement nuageux 61 m
principalement nuageux 122 m
2021/06/23 04:55 EBFS 230455Z 04007KT 2000 BR SCT002 BKN004 11/11 Q1020 AMB YLO TEMPO AMB
EBCV - Chievres, Belgium
Distance de la station: NO 40km
Mise à jour: 23/06/2021 06:55
couvert
couvert
 Wind from NNE
Vent: NNE 11 km/h
Température: 11°C
Point de rosée: 11°C
Humidité: 100%
Baromètre: 1020 hPa
Ciel: couvert
Visibilité: 7 km
Détails du ciel: quelques nuages 152 m
couvert 732 m
2021/06/23 04:55 EBCV 230455Z AUTO 03006KT 7000 FEW005/// OVC024/// 11/11 Q1020 WHT
 
EBBE - Beauvechain, Belgium
Distance de la station: NE 57km
Mise à jour: 23/06/2021 06:55
brume, principalement nuageux
brume, principalement nuageux
 Wind from N
Vent: N 9 km/h
Température: 11°C
Point de rosée: 11°C
Humidité: 100%
Baromètre: 1020 hPa
Résumé: brume
Ciel: principalement nuageux
Visibilité: 3 km
Détails du ciel: partiellement nuageux 91 m
principalement nuageux 152 m
2021/06/23 04:55 EBBE 230455Z 01005KT 2500 BR SCT003 BKN005 11/11 Q1020 YLO GRN TEMPO YLO
EBBR - Brussels National, Belgium
Distance de la station: NNE 63km
Mise à jour: 23/06/2021 06:50
principalement nuageux
principalement nuageux
 Wind from NNE
Vent: NNE 9 km/h
Température: 11°C
Point de rosée: 10°C
Humidité: 94%
Baromètre: 1021 hPa
Ciel: principalement nuageux
Visibilité: 6 km
Détails du ciel: partiellement nuageux 122 m
principalement nuageux 213 m
2021/06/23 04:50 EBBR 230450Z 03005KT 6000 SCT004 BKN007 11/10 Q1021 NOSIG
LFQI - Cambrai/Epinoy, France
Distance de la station: O 82km
Mise à jour: 29/06/2012 12:30
NOT Current

 Wind from SO
Vent: SO 17 km/h
Température: 18°C
Point de rosée: 14°C
Humidité: 78%
Baromètre: 1009 hPa
2012/06/29 10:30 LFQI 291030Z AUTO 22009KT //// // ///////// 18/14 Q1009
 
LFQQ - Lille/Lesquin, France
Distance de la station: ONO 86km
Mise à jour: 23/06/2021 06:30
clair
clair
 Wind from N
Vent: N 13 km/h
Température: 12°C
Point de rosée: 10°C
Humidité: 88%
Baromètre: 1021 hPa
Résumé: clair
Visibilité: greater than 10 km
2021/06/23 04:30 LFQQ 230430Z AUTO 01007KT CAVOK 12/10 Q1021 TEMPO 4000 RA BKN013
EBLG - Bierset/Liege, Belgium
Distance de la station: ENE 89km
Mise à jour: 23/06/2021 06:50
brume, principalement nuageux
brume, principalement nuageux
 Wind from NNE
Vent: NNE 13 km/h
Température: 11°C
Point de rosée: 11°C
Humidité: 100%
Baromètre: 1020 hPa
Résumé: brume
Ciel: principalement nuageux
Visibilité: 3 km
Détails du ciel: partiellement nuageux 61 m
principalement nuageux 91 m
2021/06/23 04:50 EBLG 230450Z 02007KT 340V040 2500 BR SCT002 BKN003 11/11 Q1020 TEMPO BKN002
EBDT - Schaffen, Belgium
Distance de la station: NE 93km
Mise à jour: 23/06/2021 06:55
Light drizzle, couvert
Light drizzle, couvert
 Wind from NNE
Vent: NNE 13 km/h
Température: 11°C
Point de rosée: 11°C
Humidité: 100%
Baromètre: 1020 hPa
Résumé: Light Drizzle
Ciel: couvert
Visibilité: 2 km
Détails du ciel: couvert 91 m
2021/06/23 04:55 EBDT 230455Z AUTO 02007KT 2100 -DZ OVC003/// 11/11 Q1020 YLO
 
EBAW - Antwerp/Deurne, Belgium
Distance de la station: N 96km
Mise à jour: 23/06/2021 06:50
principalement nuageux
principalement nuageux
 Wind from NE
Vent: NE 9 km/h
Température: 12°C
Point de rosée: 10°C
Humidité: 88%
Baromètre: 1021 hPa
Ciel: principalement nuageux
Visibilité: 10 km
Détails du ciel: principalement nuageux 1219 m
2021/06/23 04:50 EBAW 230450Z 04005KT 9999 BKN040 12/10 Q1021 REDZ
LFAQ - Bray, France
Distance de la station: OSO 119km
Mise à jour: 23/06/2021 06:30
couvert
couvert
 Wind from NNE
Vent: NNE 22 km/h
Température: 11°C
Point de rosée: 10°C
Humidité: 94%
Baromètre: 1020 hPa
Ciel: couvert
Visibilité: 10 km
Détails du ciel: couvert 1097 m
2021/06/23 04:30 LFAQ 230430Z AUTO 03012KT 9999 OVC036 11/10 Q1020
LFSR - Reims/Champagne, France
Distance de la station: S 120km
Mise à jour: 16/04/2012 09:00
NOT Current
partiellement nuageux
partiellement nuageux
 Wind from N
Vent: N 17 km/h
Température: 4°C
Température ressentie: 0°C
Point de rosée: 0°C
Humidité: 75%
Baromètre: 1022 hPa
Ciel: partiellement nuageux
Visibilité: 10 km
2012/04/16 07:00 LFSR 160700Z AUTO 01009KT 340V070 9999 NSC 04/00 Q1022
 
EHWO - Woensdrecht, Netherlands
Distance de la station: N 122km
Mise à jour: 23/06/2021 06:55
pluie légère, couvert
pluie légère, couvert
 Wind from NE
Vent: NE 9 km/h
Température: 11°C
Point de rosée: 10°C
Humidité: 94%
Baromètre: 1021 hPa
Résumé: pluie légère
Ciel: couvert
Visibilité: 10 km
Détails du ciel: couvert 1951 m
2021/06/23 04:55 EHWO 230455Z AUTO 04005KT 010V080 9999 -RA OVC064 11/10 Q1021 RERA REDZ BLU
EHBK - Zuid-Limburg, Netherlands
Distance de la station: ENE 123km
Mise à jour: 23/06/2021 06:55
couvert
couvert
 Wind from NNE
Vent: NNE 20 km/h
Température: 12°C
Point de rosée: 11°C
Humidité: 94%
Baromètre: 1020 hPa
Ciel: couvert
Visibilité: 5 km
Détails du ciel: quelques nuages 61 m
couvert 244 m
2021/06/23 04:55 EHBK 230455Z AUTO 03011KT 5000 FEW002 OVC008 12/11 Q1020 TEMPO 4000 BR
EBBL - Kleine-Brogel, Belgium
Distance de la station: NE 124km
Mise à jour: 23/06/2021 06:55
Drizzle, principalement nuageux
Drizzle, principalement nuageux
 Wind from N
Vent: N 7 km/h
Température: 11°C
Point de rosée: 11°C
Humidité: 100%
Baromètre: 1020 hPa
Résumé: Drizzle
Ciel: principalement nuageux
Visibilité: 4 km
Détails du ciel: partiellement nuageux 152 m
principalement nuageux 732 m
2021/06/23 04:55 EBBL 230455Z 36004KT 4000 DZ SCT005 BKN024 11/11 Q1020 YLO YLO TEMPO GRN
 
EBLB - Elsenborn, Belgium
Distance de la station: E 135km
Mise à jour: 23/06/2021 06:55
brouillard, couvert
brouillard, couvert
 Wind from ENE
Vent: ENE 7 km/h
Température: 11°C
Point de rosée: 11°C
Humidité: 100%
Baromètre: 1019 hPa
Résumé: brouillard
Ciel: couvert
Visibilité: 0 km
Détails du ciel: couvert 61 m
2021/06/23 04:55 EBLB 230455Z AUTO 06004KT 0150 FG OVC002/// 11/11 Q1019 RED
EBOS - Oostende Airport, Belgium
Distance de la station: NO 136km
Mise à jour: 23/06/2021 06:50
principalement nuageux
principalement nuageux
 Wind from NE
Vent: NE 13 km/h
Température: 13°C
Point de rosée: 8°C
Humidité: 72%
Baromètre: 1022 hPa
Ciel: principalement nuageux
Visibilité: 10 km
Détails du ciel: quelques nuages 853 m
principalement nuageux 1219 m
2021/06/23 04:50 EBOS 230450Z 05007KT 9999 FEW028 BKN040 13/08 Q1022 NOSIG
EBFN - Koksijde, Belgium
Distance de la station: NO 140km
Mise à jour: 23/06/2021 06:55
principalement nuageux
principalement nuageux
 Wind from NNE
Vent: NNE 11 km/h
Température: 13°C
Point de rosée: 9°C
Humidité: 77%
Baromètre: 1021 hPa
Ciel: principalement nuageux
Visibilité: 10 km
Détails du ciel: quelques nuages 884 m
principalement nuageux 3353 m
2021/06/23 04:55 EBFN 230455Z 03006KT 9999 FEW029 BKN110 13/09 Q1021 BLU BLU
 
ETNG - Geilenkirchen, Germany
Distance de la station: ENE 142km
Mise à jour: 23/06/2021 06:50
Light drizzle, brume, principalement nuageux
Light drizzle, brume, principalement nuageux
 Wind from N
Vent: N 7 km/h
Température: 12°C
Point de rosée: 11°C
Humidité: 94%
Baromètre: 1020 hPa
Résumé: Light drizzle, brume
Ciel: principalement nuageux
Visibilité: 4 km
Détails du ciel: principalement nuageux 213 m
2021/06/23 04:50 ETNG 230450Z 36004KT 3500 -DZ BR BKN007 12/11 Q1020
EHGR - Gilze-Rijen, Netherlands
Distance de la station: NNE 143km
Mise à jour: 23/06/2021 06:55
couvert
couvert
 Wind from N
Vent: N 9 km/h
Température: 12°C
Point de rosée: 10°C
Humidité: 88%
Baromètre: 1021 hPa
Ciel: couvert
Visibilité: 10 km
Détails du ciel: quelques nuages 1311 m
principalement nuageux 1737 m
couvert 1981 m
2021/06/23 04:55 EHGR 230455Z AUTO 36005KT 300V030 9999 FEW043 BKN057 OVC065 12/10 Q1021 BLU
EHEH - Eindhoven, Netherlands
Distance de la station: NNE 147km
Mise à jour: 23/06/2021 06:55
couvert
couvert
 Wind from N
Vent: N 7 km/h
Température: 12°C
Point de rosée: 10°C
Humidité: 88%
Baromètre: 1020 hPa
Ciel: couvert
Visibilité: 10 km
Détails du ciel: couvert 1067 m
2021/06/23 04:55 EHEH 230455Z AUTO 36004KT 330V030 9999 OVC035 12/10 Q1020 BLU NOSIG
 
ELLX - Luxembourg, Luxembourg
Distance de la station: ESE 162km
Mise à jour: 23/06/2021 06:50
couvert
couvert
 Wind from ENE
Vent: ENE 11 km/h
Température: 14°C
Point de rosée: 13°C
Humidité: 94%
Baromètre: 1018 hPa
Ciel: couvert
Visibilité: 6 km
Détails du ciel: principalement nuageux 91 m
couvert 152 m
2021/06/23 04:50 ELLX 230450Z 06006KT 030V090 6000 BKN003 OVC005 14/13 Q1018 BECMG BKN006
EHVK - Volkel, Netherlands
Distance de la station: NE 174km
Mise à jour: 23/06/2021 06:55
couvert
couvert
 Wind from N
Vent: N 6 km/h
Température: 12°C
Point de rosée: 11°C
Humidité: 94%
Baromètre: 1020 hPa
Ciel: couvert
Visibilité: 10 km
Détails du ciel: couvert 1158 m
2021/06/23 04:55 EHVK 230455Z AUTO 36003KT 330V040 9999 OVC038 12/11 Q1020 BLU
LFOK - Chalons/Vatry, France
Distance de la station: S 174km
Mise à jour: 23/06/2021 06:30
brume, couvert
brume, couvert
 Wind from N
Vent: N 11 km/h
Température: 14°C
Point de rosée: 13°C
Humidité: 94%
Baromètre: 1018 hPa
Résumé: brume
Ciel: couvert
Visibilité: 5 km
Détails du ciel: couvert 183 m
2021/06/23 04:30 LFOK 230430Z AUTO 01006KT 5000 BR OVC006 14/13 Q1018 BECMG SCT007 BKN080
Script from Saratoga-Weather.org